Time;durP1;ratioP1;P1;durP2;ratioP2;P2;SDS_P1;SDS_P2;PMS_P1;PMS_P2;Temp;Humidity;BMP_temperature;BMP_pressure;BME280_temperature;BME280_humidity;BME280_pressure;Samples;Min_cycle;Max_cycle;Signal;HPM_P1;HPM_P2
2022/12/10 00:01:33;;;;;;;28.47;25.40;;;0.20;99.90;;;;;;5042508;28;20433;-76
2022/12/10 00:04:01;;;;;;;27.55;24.65;;;0.20;99.90;;;;;;5059571;22;20437;-79
2022/12/10 00:06:29;;;;;;;28.35;25.35;;;0.20;99.90;;;;;;5037353;28;20487;-78
2022/12/10 00:08:56;;;;;;;29.60;26.40;;;0.20;99.90;;;;;;5045677;28;20511;-79
2022/12/10 00:11:25;;;;;;;30.58;27.38;;;0.20;99.90;;;;;;5040136;28;20459;-79
2022/12/10 00:13:53;;;;;;;29.70;26.60;;;0.20;99.90;;;;;;5041566;28;20435;-79
2022/12/10 00:16:21;;;;;;;30.55;27.45;;;0.20;99.90;;;;;;5047720;28;20433;-79
2022/12/10 00:18:49;;;;;;;28.30;25.30;;;0.10;99.90;;;;;;5049067;28;20448;-79
2022/12/10 00:21:18;;;;;;;31.45;28.00;;;0.10;99.90;;;;;;5047846;28;20432;-79
2022/12/10 00:23:45;;;;;;;30.13;26.93;;;0.10;99.90;;;;;;5047447;28;20527;-79
2022/12/10 00:26:15;;;;;;;29.35;26.35;;;0.10;99.90;;;;;;5033067;28;20428;-79
2022/12/10 00:28:44;;;;;;;30.05;26.85;;;0.00;99.90;;;;;;5048577;28;20898;-79
2022/12/10 00:31:12;;;;;;;29.48;26.35;;;0.00;99.90;;;;;;5047482;28;20444;-79
2022/12/10 00:33:39;;;;;;;30.60;27.30;;;-0.10;99.90;;;;;;5047485;28;20440;-80
2022/12/10 00:36:09;;;;;;;29.02;26.02;;;-0.10;99.90;;;;;;5047828;28;20941;-80
2022/12/10 00:38:36;;;;;;;30.73;27.42;;;-0.20;99.90;;;;;;5047852;28;20444;-79
2022/12/10 00:41:04;;;;;;;30.65;27.35;;;-0.30;99.90;;;;;;5042148;28;20433;-78
2022/12/10 00:43:31;;;;;;;31.33;28.02;;;-0.20;99.90;;;;;;5040999;28;20916;-79
2022/12/10 00:45:59;;;;;;;30.48;27.38;;;-0.30;99.90;;;;;;5047350;28;20433;-79
2022/12/10 00:48:26;;;;;;;30.75;27.45;;;-0.30;99.90;;;;;;5046739;28;20468;-79
2022/12/10 00:50:58;;;;;;;30.00;25.97;;;-0.30;99.90;;;;;;5047355;28;20428;-79
2022/12/10 00:53:25;;;;;;;30.70;27.20;;;-0.40;99.90;;;;;;5040661;28;20439;-79
2022/12/10 00:55:52;;;;;;;29.95;26.45;;;-0.40;99.90;;;;;;5046762;28;20425;-79
2022/12/10 00:58:19;;;;;;;29.20;26.00;;;-0.50;99.90;;;;;;5043410;28;20425;-79
2022/12/10 01:00:46;;;;;;;28.42;25.13;;;-0.50;99.90;;;;;;5046674;28;20429;-80
2022/12/10 01:03:14;;;;;;;27.70;24.83;;;-0.50;99.90;;;;;;5067258;28;20492;-80
2022/12/10 01:05:41;;;;;;;28.73;25.50;;;-0.60;99.90;;;;;;5061911;28;20531;-79
2022/12/10 01:08:08;;;;;;;28.95;25.95;;;-0.60;99.90;;;;;;5060415;28;20516;-79
2022/12/10 01:10:35;;;;;;;28.50;25.40;;;-0.60;99.90;;;;;;5045029;28;20432;-79
2022/12/10 01:13:04;;;;;;;27.52;24.63;;;-0.60;99.90;;;;;;5041928;28;20433;-79
2022/12/10 01:15:32;;;;;;;28.50;24.98;;;-0.60;99.90;;;;;;5046255;28;20426;-79
2022/12/10 01:17:58;;;;;;;26.70;23.90;;;-0.70;99.90;;;;;;5046545;28;20429;-78
2022/12/10 01:20:26;;;;;;;26.27;23.58;;;-0.70;99.90;;;;;;5046557;28;20425;-79
2022/12/10 01:22:53;;;;;;;26.83;23.98;;;-0.80;99.90;;;;;;5046535;28;20436;-79
2022/12/10 01:25:20;;;;;;;29.05;25.85;;;-0.80;99.90;;;;;;5044544;28;20440;-78
2022/12/10 01:27:46;;;;;;;27.80;24.90;;;-0.80;99.90;;;;;;5046327;28;20440;-78
2022/12/10 01:30:13;;;;;;;27.20;24.40;;;-0.80;99.90;;;;;;5069179;28;20455;-78
2022/12/10 01:32:40;;;;;;;27.88;25.05;;;-0.90;99.90;;;;;;5070753;28;20444;-79
2022/12/10 01:35:07;;;;;;;28.40;25.30;;;-0.90;99.90;;;;;;5058059;28;20415;-79
2022/12/10 01:37:35;;;;;;;26.75;23.95;;;-0.90;99.90;;;;;;5048170;28;20527;-79
2022/12/10 01:40:03;;;;;;;27.45;24.63;;;-0.90;99.90;;;;;;5043897;28;20437;-79
2022/12/10 01:42:29;;;;;;;28.98;25.88;;;-0.90;99.90;;;;;;5045252;28;20929;-79
2022/12/10 01:45:10;;;;;;;28.50;25.60;;;-0.90;99.90;;;;;;5047726;28;20413;-78
2022/12/10 01:47:37;;;;;;;27.05;24.25;;;-0.90;99.90;;;;;;5048160;28;20417;-79
2022/12/10 01:50:06;;;;;;;25.03;22.43;;;-0.90;99.90;;;;;;5048132;28;20416;-79
2022/12/10 01:52:33;;;;;;;25.83;23.13;;;-0.90;99.90;;;;;;5045516;28;20883;-79
2022/12/10 01:55:01;;;;;;;26.10;23.40;;;-0.90;99.90;;;;;;5046197;28;20436;-79
2022/12/10 01:57:29;;;;;;;26.13;23.33;;;-0.80;99.90;;;;;;5045558;28;20460;-79
2022/12/10 01:59:58;;;;;;;26.00;23.40;;;-0.80;99.90;;;;;;5047968;28;20447;-79
2022/12/10 02:02:40;;;;;;;24.33;21.73;;;-0.70;99.90;;;;;;5047317;28;20441;-79
2022/12/10 02:05:19;;;;;;;25.90;23.30;;;-0.70;99.90;;;;;;5047249;28;20446;-79
2022/12/10 02:07:56;;;;;;;26.77;24.08;;;-0.70;99.90;;;;;;5045422;28;20436;-78
2022/12/10 02:10:39;;;;;;;26.58;23.88;;;-0.70;99.90;;;;;;5047442;28;20898;-78
2022/12/10 02:13:11;;;;;;;26.23;23.53;;;-0.70;99.90;;;;;;5044264;28;20929;-78
2022/12/10 02:15:42;;;;;;;29.08;25.88;;;-0.70;99.90;;;;;;5045789;28;20429;-78
2022/12/10 02:18:13;;;;;;;27.10;24.30;;;-0.70;99.90;;;;;;5044684;28;20779;-77
2022/12/10 02:20:43;;;;;;;27.05;24.35;;;-0.80;99.90;;;;;;5046524;28;20445;-78
2022/12/10 02:23:13;;;;;;;26.73;24.02;;;-0.80;99.90;;;;;;5045271;28;20950;-78
2022/12/10 02:25:47;;;;;;;28.50;25.70;;;-0.90;99.90;;;;;;5044301;28;20842;-78
2022/12/10 02:28:20;;;;;;;27.83;24.93;;;-0.90;99.90;;;;;;5046136;28;20819;-78
2022/12/10 02:30:51;;;;;;;25.98;23.27;;;-0.90;99.90;;;;;;5043802;28;20740;-77
2022/12/10 02:33:19;;;;;;;25.58;22.98;;;-0.90;99.90;;;;;;5046184;28;20432;-78
2022/12/10 02:35:50;;;;;;;27.30;24.50;;;-1.00;99.90;;;;;;5045275;28;20425;-78
2022/12/10 02:38:21;;;;;;;28.45;25.45;;;-1.10;99.90;;;;;;5036136;28;20439;-78
2022/12/10 02:40:53;;;;;;;27.60;24.70;;;-1.10;99.90;;;;;;5043790;28;20789;-76
2022/12/10 02:43:21;;;;;;;27.33;24.08;;;-1.10;99.90;;;;;;5047463;28;20436;-76
2022/12/10 02:45:50;;;;;;;27.50;24.50;;;-1.10;99.90;;;;;;5044074;28;21404;-76
2022/12/10 02:48:19;;;;;;;27.90;25.00;;;-1.10;99.90;;;;;;5046918;28;20907;-76
2022/12/10 02:50:46;;;;;;;27.90;24.90;;;-1.10;99.90;;;;;;5046479;28;20425;-76
2022/12/10 02:53:12;;;;;;;28.10;25.10;;;-1.10;99.90;;;;;;5045678;28;20874;-76
2022/12/10 02:55:52;;;;;;;26.50;23.67;;;-1.10;99.90;;;;;;5044859;28;20435;-76
2022/12/10 02:58:28;;;;;;;27.53;24.60;;;-1.10;99.90;;;;;;5045800;28;20987;-76
2022/12/10 03:01:03;;;;;;;28.40;24.98;;;-1.20;99.90;;;;;;5043207;28;20436;-76
2022/12/10 03:03:39;;;;;;;28.38;25.27;;;-1.20;99.90;;;;;;5040011;28;20500;-76
2022/12/10 03:06:13;;;;;;;28.50;25.57;;;-1.20;99.90;;;;;;5048130;28;20496;-75
2022/12/10 03:08:46;;;;;;;29.42;26.23;;;-1.20;99.90;;;;;;5065371;28;20435;-77
2022/12/10 03:11:15;;;;;;;28.27;25.30;;;-1.10;99.90;;;;;;5055143;28;20429;-75
2022/12/10 03:13:50;;;;;;;27.65;24.63;;;-1.10;99.90;;;;;;5055684;28;20772;-78
2022/12/10 03:16:20;;;;;;;26.63;23.92;;;-1.00;99.90;;;;;;5045533;28;20428;-76
2022/12/10 03:18:50;;;;;;;26.45;23.70;;;-1.00;99.90;;;;;;5044395;28;20429;-76
2022/12/10 03:21:19;;;;;;;25.80;23.10;;;-1.00;99.90;;;;;;5042784;28;20428;-76
2022/12/10 03:23:48;;;;;;;26.23;23.57;;;-0.90;99.90;;;;;;5034493;28;20518;-76
2022/12/10 03:26:16;;;;;;;26.00;23.30;;;-0.90;99.90;;;;;;5034365;28;20513;-77
2022/12/10 03:28:50;;;;;;;28.10;25.20;;;-0.90;99.90;;;;;;5044333;28;20440;-77
2022/12/10 03:31:20;;;;;;;26.60;23.90;;;-0.80;99.90;;;;;;5038213;28;20417;-77
2022/12/10 03:33:48;;;;;;;26.00;23.40;;;-0.80;99.90;;;;;;5045476;28;20456;-77
2022/12/10 03:36:17;;;;;;;25.73;23.13;;;-0.80;99.90;;;;;;5050436;28;20413;-77
2022/12/10 03:38:44;;;;;;;26.17;23.58;;;-0.80;99.90;;;;;;5047735;28;20433;-77
2022/12/10 03:41:11;;;;;;;26.55;23.75;;;-0.80;99.90;;;;;;5059745;28;20425;-77
2022/12/10 03:43:51;;;;;;;27.25;24.45;;;-0.70;99.90;;;;;;5069959;28;20435;-78
2022/12/10 03:46:19;;;;;;;25.73;23.13;;;-0.70;99.90;;;;;;5050540;28;20604;-77
2022/12/10 03:48:46;;;;;;;27.00;24.20;;;-0.60;99.90;;;;;;5047696;28;20428;-77
2022/12/10 03:51:13;;;;;;;25.38;22.77;;;-0.60;99.90;;;;;;5049435;28;20437;-77
2022/12/10 03:53:39;;;;;;;26.58;23.88;;;-0.60;99.90;;;;;;5048224;28;20429;-79
2022/12/10 03:56:06;;;;;;;27.15;24.35;;;-0.60;99.90;;;;;;5046963;28;20610;-79
2022/12/10 03:58:33;;;;;;;27.13;24.33;;;-0.60;99.90;;;;;;5057254;28;20433;-78
2022/12/10 04:01:00;;;;;;;27.17;24.38;;;-0.50;99.90;;;;;;5069531;28;20435;-78
2022/12/10 04:03:28;;;;;;;26.80;24.20;;;-0.50;99.90;;;;;;5069072;28;20440;-79
2022/12/10 04:05:54;;;;;;;27.90;25.10;;;-0.40;99.90;;;;;;5065148;28;20459;-79
2022/12/10 04:08:21;;;;;;;27.45;24.65;;;-0.40;99.90;;;;;;5051564;28;20441;-79
2022/12/10 04:10:48;;;;;;;26.17;23.48;;;-0.40;99.90;;;;;;5051134;28;20479;-79
2022/12/10 04:18:44;;;;;;;27.33;24.52;;;-0.30;99.90;;;;;;5048599;28;20495;-79
2022/12/10 04:26:55;;;;;;;25.53;22.90;;;-0.30;99.90;;;;;;5047875;28;20933;-77
2022/12/10 04:29:22;;;;;;;25.80;23.20;;;-0.30;99.90;;;;;;5041545;28;20429;-77
2022/12/10 04:31:49;;;;;;;24.10;21.60;;;-0.30;99.90;;;;;;5048706;28;20437;-77
2022/12/10 04:34:18;;;;;;;24.50;22.10;;;-0.20;99.80;;;;;;5045194;28;20759;-77
2022/12/10 04:36:45;;;;;;;24.70;22.27;;;-0.20;99.80;;;;;;5048397;28;20433;-77
2022/12/10 04:39:12;;;;;;;23.63;21.33;;;-0.20;99.70;;;;;;5046008;28;20455;-77
2022/12/10 04:41:40;;;;;;;24.70;22.10;;;-0.20;99.60;;;;;;5047466;28;20444;-79
2022/12/10 04:44:07;;;;;;;23.73;21.42;;;-0.20;99.50;;;;;;5046644;28;20443;-77
2022/12/10 04:46:34;;;;;;;25.15;22.75;;;-0.20;99.40;;;;;;5047077;28;20441;-79
2022/12/10 04:49:02;;;;;;;25.00;22.40;;;-0.20;99.30;;;;;;5047604;28;20904;-79
2022/12/10 04:51:30;;;;;;;25.02;21.90;;;-0.10;99.20;;;;;;5048209;28;20443;-79
2022/12/10 04:53:57;;;;;;;24.02;21.52;;;-0.20;99.00;;;;;;5046352;28;20436;-78
2022/12/10 04:56:24;;;;;;;25.63;22.97;;;-0.20;98.90;;;;;;5047358;28;20867;-79
2022/12/10 04:58:51;;;;;;;23.90;21.30;;;-0.20;98.90;;;;;;5045242;28;20444;-78
2022/12/10 05:01:19;;;;;;;24.17;21.58;;;-0.20;98.80;;;;;;5048129;28;20444;-79
2022/12/10 05:03:46;;;;;;;24.77;22.17;;;-0.10;98.70;;;;;;5047326;28;20426;-78
2022/12/10 05:06:15;;;;;;;23.65;21.10;;;-0.10;98.60;;;;;;5040991;28;20904;-77
2022/12/10 05:08:43;;;;;;;24.83;22.23;;;-0.20;98.60;;;;;;5048407;28;20516;-77
2022/12/10 05:11:12;;;;;;;25.17;22.52;;;-0.20;98.50;;;;;;5054144;28;20429;-78
2022/12/10 05:13:40;;;;;;;25.25;22.50;;;-0.20;98.60;;;;;;5067003;28;20429;-78
2022/12/10 05:16:09;;;;;;;26.83;23.25;;;-0.10;98.60;;;;;;5067609;28;20439;-78
2022/12/10 05:18:37;;;;;;;25.73;22.33;;;-0.10;98.60;;;;;;5066460;28;20644;-77
2022/12/10 05:21:06;;;;;;;25.73;22.40;;;-0.20;98.50;;;;;;5057684;28;20452;-80
2022/12/10 05:23:35;;;;;;;25.65;22.90;;;-0.10;98.40;;;;;;5050934;28;20531;-78
2022/12/10 05:26:05;;;;;;;25.85;22.65;;;-0.10;98.50;;;;;;5047884;28;20444;-77
2022/12/10 05:28:34;;;;;;;26.10;22.80;;;-0.10;98.50;;;;;;5047434;28;20429;-78
2022/12/10 05:31:01;;;;;;;26.73;23.83;;;-0.10;98.40;;;;;;5043999;28;20436;-78
2022/12/10 05:33:28;;;;;;;26.40;23.25;;;-0.10;98.40;;;;;;5052935;28;20426;-78
2022/12/10 05:35:56;;;;;;;27.15;23.38;;;-0.10;98.30;;;;;;5066082;28;20437;-77
2022/12/10 05:38:23;;;;;;;28.02;23.90;;;-0.10;98.30;;;;;;5066093;28;20439;-78
2022/12/10 05:40:49;;;;;;;26.45;23.27;;;-0.10;98.30;;;;;;5044905;28;20441;-80
2022/12/10 05:43:18;;;;;;;28.35;23.83;;;-0.10;98.20;;;;;;5046779;28;20444;-78
2022/12/10 05:45:45;;;;;;;27.00;23.05;;;0.00;98.20;;;;;;5048527;28;20433;-78
2022/12/10 05:48:13;;;;;;;26.95;24.13;;;0.00;98.30;;;;;;5042969;28;20472;-78
2022/12/10 05:50:41;;;;;;;27.95;24.10;;;0.00;98.20;;;;;;5046660;28;20430;-78
2022/12/10 05:53:08;;;;;;;25.73;22.92;;;0.00;98.20;;;;;;5046326;28;20438;-78
2022/12/10 05:55:35;;;;;;;27.42;23.58;;;0.00;98.30;;;;;;5043900;28;20430;-78
2022/12/10 05:58:01;;;;;;;28.40;23.67;;;0.00;98.40;;;;;;5045233;28;20448;-78
2022/12/10 06:00:29;;;;;;;27.67;24.10;;;0.00;98.40;;;;;;5046243;28;20433;-78
2022/12/10 06:02:57;;;;;;;25.65;22.58;;;0.00;98.40;;;;;;5045577;28;20540;-78
2022/12/10 06:05:24;;;;;;;28.20;24.48;;;0.00;98.40;;;;;;5046507;28;20431;-79
2022/12/10 06:07:50;;;;;;;28.27;24.23;;;0.00;98.30;;;;;;5039885;28;20749;-78
2022/12/10 06:10:17;;;;;;;29.67;23.38;;;0.00;98.20;;;;;;5033560;28;20757;-78
2022/12/10 06:12:44;;;;;;;27.60;23.65;;;0.00;98.10;;;;;;5032886;28;20433;-78
2022/12/10 06:15:11;;;;;;;27.70;23.60;;;0.00;98.20;;;;;;5038772;28;20765;-78
2022/12/10 06:17:39;;;;;;;26.92;23.83;;;0.00;98.20;;;;;;5045190;28;20425;-78
2022/12/10 06:20:07;;;;;;;27.50;24.50;;;0.00;98.10;;;;;;5044326;28;20437;-79
2022/12/10 06:22:35;;;;;;;28.53;23.73;;;0.00;98.20;;;;;;5047611;28;20420;-80
2022/12/10 06:25:02;;;;;;;27.70;23.98;;;0.10;98.20;;;;;;5041146;28;20440;-79
2022/12/10 06:27:31;;;;;;;29.75;24.75;;;0.10;98.20;;;;;;5043090;28;20440;-80
2022/12/10 06:29:58;;;;;;;29.58;25.20;;;0.10;98.10;;;;;;5044423;28;20516;-79
2022/12/10 06:32:25;;;;;;;31.00;25.77;;;0.10;97.90;;;;;;5045444;28;20524;-79
2022/12/10 06:34:53;;;;;;;29.52;23.48;;;0.10;98.00;;;;;;5044261;28;20429;-79
2022/12/10 06:37:20;;;;;;;28.17;24.98;;;0.10;97.90;;;;;;5045586;28;20521;-79
2022/12/10 06:39:46;;;;;;;29.75;24.80;;;0.10;97.90;;;;;;5045385;28;20433;-82
2022/12/10 06:42:13;;;;;;;29.63;23.30;;;0.10;97.80;;;;;;5040614;28;20437;-80
2022/12/10 06:44:40;;;;;;;27.90;23.63;;;0.10;97.70;;;;;;5045296;28;20528;-78
2022/12/10 06:47:07;;;;;;;29.55;25.08;;;0.10;97.60;;;;;;5044568;28;20883;-78
2022/12/10 06:49:34;;;;;;;27.67;24.10;;;0.10;97.60;;;;;;5044140;28;20425;-78
2022/12/10 06:52:02;;;;;;;25.95;22.98;;;0.10;97.60;;;;;;5046347;28;20420;-79
2022/12/10 06:54:29;;;;;;;29.00;25.25;;;0.10;97.50;;;;;;5044977;28;20429;-81
2022/12/10 06:56:56;;;;;;;27.25;23.27;;;0.00;97.70;;;;;;5036013;28;20603;-81
2022/12/10 06:59:23;;;;;;;28.85;24.63;;;0.00;97.70;;;;;;5044173;28;20441;-79
2022/12/10 07:01:50;;;;;;;29.33;23.95;;;0.10;97.70;;;;;;5044116;28;20440;-80
2022/12/10 07:04:17;;;;;;;28.58;23.23;;;0.10;97.80;;;;;;5042946;28;20425;-79
2022/12/10 07:06:44;;;;;;;27.23;23.73;;;0.10;97.70;;;;;;5045375;28;20437;-79
2022/12/10 07:09:12;;;;;;;26.90;22.85;;;0.10;97.90;;;;;;5041717;28;20429;-78
2022/12/10 07:11:39;;;;;;;26.38;23.48;;;0.10;97.60;;;;;;5044338;28;20439;-80
2022/12/10 07:14:07;;;;;;;25.27;22.52;;;0.00;97.40;;;;;;5042627;28;20428;-76
2022/12/10 07:16:34;;;;;;;27.40;24.25;;;0.00;97.60;;;;;;5044704;28;20433;-78
2022/12/10 07:19:02;;;;;;;27.27;23.65;;;-0.10;97.60;;;;;;5035868;28;20516;-75
2022/12/10 07:21:32;;;;;;;26.27;23.27;;;-0.10;97.70;;;;;;5046309;28;20427;-81
2022/12/10 07:24:04;;;;;;;26.20;23.30;;;-0.10;97.60;;;;;;5041377;28;20447;-75
2022/12/10 07:26:35;;;;;;;26.50;23.60;;;-0.10;97.40;;;;;;5043980;28;20893;-75
2022/12/10 07:29:03;;;;;;;27.60;22.50;;;-0.10;97.40;;;;;;5064290;28;20441;-73
2022/12/10 07:31:30;;;;;;;28.13;23.08;;;-0.10;97.40;;;;;;5060871;28;20456;-78
2022/12/10 07:33:59;;;;;;;25.15;22.42;;;-0.20;97.50;;;;;;5047428;28;20447;-74
2022/12/10 07:36:27;;;;;;;26.20;22.98;;;-0.20;97.70;;;;;;5040732;28;20485;-73
2022/12/10 07:38:54;;;;;;;25.48;22.50;;;-0.20;97.90;;;;;;5041690;28;20429;-74
2022/12/10 07:41:22;;;;;;;27.05;23.45;;;-0.20;97.70;;;;;;5041683;28;20469;-74
2022/12/10 07:43:51;;;;;;;27.35;23.40;;;-0.20;97.90;;;;;;5043840;28;20445;-73
2022/12/10 07:46:20;;;;;;;27.23;24.20;;;-0.20;98.00;;;;;;5044118;28;20490;-74
2022/12/10 07:48:48;;;;;;;28.02;23.75;;;-0.10;97.90;;;;;;5064917;28;20587;-74
2022/12/10 07:51:16;;;;;;;27.50;24.50;;;-0.20;97.90;;;;;;5064682;28;20436;-75
2022/12/10 07:53:44;;;;;;;27.63;23.87;;;-0.20;98.00;;;;;;5055242;28;20443;-75
2022/12/10 07:56:11;;;;;;;26.65;23.75;;;-0.10;98.10;;;;;;5043619;28;20532;-74
2022/12/10 07:58:38;;;;;;;26.70;23.80;;;-0.10;98.20;;;;;;5042491;28;20444;-75
2022/12/10 08:01:10;;;;;;;27.52;24.00;;;-0.10;98.20;;;;;;5043223;28;20437;-75
2022/12/10 08:03:37;;;;;;;28.52;24.42;;;-0.10;98.30;;;;;;5040484;28;21034;-71
2022/12/10 08:06:05;;;;;;;26.27;23.42;;;0.00;98.30;;;;;;5042397;28;20992;-68
2022/12/10 08:08:34;;;;;;;27.00;24.08;;;0.00;98.10;;;;;;5039233;28;20433;-75
2022/12/10 08:11:01;;;;;;;28.17;24.73;;;0.00;98.00;;;;;;5040832;28;20451;-76
2022/12/10 08:13:27;;;;;;;27.05;24.25;;;0.10;98.10;;;;;;5031592;28;20436;-75
2022/12/10 08:15:54;;;;;;;27.02;23.58;;;0.10;98.20;;;;;;5043775;28;20436;-76
2022/12/10 08:18:22;;;;;;;25.98;23.27;;;0.10;98.20;;;;;;5043867;28;20456;-76
2022/12/10 08:20:49;;;;;;;24.60;22.10;;;0.20;98.20;;;;;;5048484;28;20433;-74
2022/12/10 08:23:16;;;;;;;26.90;24.13;;;0.30;98.10;;;;;;5056745;28;20523;-76
2022/12/10 08:25:42;;;;;;;26.17;23.45;;;0.40;97.60;;;;;;5052710;28;20425;-77
2022/12/10 08:28:09;;;;;;;26.13;23.33;;;0.40;97.40;;;;;;5050088;28;20435;-76
2022/12/10 08:30:36;;;;;;;26.88;24.08;;;0.40;97.30;;;;;;5053259;28;21021;-77
2022/12/10 08:33:03;;;;;;;26.35;23.55;;;0.50;97.20;;;;;;5055058;28;20451;-77
2022/12/10 08:35:31;;;;;;;26.48;23.58;;;0.50;97.10;;;;;;5052105;28;20425;-77
2022/12/10 08:37:58;;;;;;;26.65;23.75;;;0.50;97.00;;;;;;5063015;28;20488;-79
2022/12/10 08:40:25;;;;;;;26.48;23.67;;;0.40;97.00;;;;;;5063903;28;20469;-76
2022/12/10 08:42:52;;;;;;;27.48;24.67;;;0.40;97.30;;;;;;5062911;28;20434;-76
2022/12/10 08:45:19;;;;;;;26.52;23.73;;;0.50;97.40;;;;;;5058665;28;20444;-78
2022/12/10 08:47:46;;;;;;;26.02;23.33;;;0.50;97.40;;;;;;5057466;28;20460;-78
2022/12/10 08:50:13;;;;;;;27.20;24.30;;;0.50;97.30;;;;;;5057556;28;20433;-76
2022/12/10 08:52:41;;;;;;;29.20;24.87;;;0.50;97.30;;;;;;5050312;28;20425;-76
2022/12/10 08:55:09;;;;;;;31.95;27.10;;;0.50;97.40;;;;;;5043589;28;20513;-75
2022/12/10 08:57:36;;;;;;;30.92;24.75;;;0.50;97.60;;;;;;5046959;28;20437;-76
2022/12/10 09:00:04;;;;;;;28.98;25.88;;;0.60;97.50;;;;;;5042671;28;20464;-75
2022/12/10 09:02:30;;;;;;;33.10;27.92;;;0.60;97.40;;;;;;5048232;28;20504;-79
2022/12/10 09:04:57;;;;;;;33.55;27.70;;;0.60;97.60;;;;;;5042667;28;20961;-76
2022/12/10 09:07:24;;;;;;;32.17;28.27;;;0.70;97.60;;;;;;5047374;28;20436;-77
2022/12/10 09:09:52;;;;;;;33.88;29.23;;;0.70;97.50;;;;;;5045800;28;20439;-80
2022/12/10 09:12:19;;;;;;;34.78;27.55;;;0.80;97.20;;;;;;5047494;28;20439;-80
2022/12/10 09:14:45;;;;;;;35.97;30.52;;;0.80;97.30;;;;;;5045655;28;20464;-78
2022/12/10 09:17:12;;;;;;;38.33;30.63;;;0.80;97.40;;;;;;5047085;28;20495;-81
2022/12/10 09:19:39;;;;;;;37.97;30.38;;;0.80;97.70;;;;;;5042466;28;20433;-79
2022/12/10 09:22:06;;;;;;;38.90;31.02;;;0.80;97.70;;;;;;5046053;28;20432;-78
2022/12/10 09:24:32;;;;;;;35.37;30.40;;;0.90;97.40;;;;;;5068013;28;20433;-78
2022/12/10 09:27:01;;;;;;;37.88;30.58;;;0.90;97.00;;;;;;5065266;28;20429;-79
2022/12/10 09:29:28;;;;;;;41.08;32.15;;;0.90;97.20;;;;;;5050372;28;20425;-66
2022/12/10 09:31:55;;;;;;;42.55;33.92;;;0.90;97.40;;;;;;5041450;28;20433;-68
2022/12/10 09:34:22;;;;;;;38.70;31.25;;;1.00;97.40;;;;;;5037745;28;20522;-67
2022/12/10 09:36:49;;;;;;;36.80;30.10;;;1.10;97.50;;;;;;5043885;28;20425;-78
2022/12/10 09:39:16;;;;;;;37.05;30.83;;;1.10;97.00;;;;;;5042453;28;20429;-77
2022/12/10 09:42:07;;;;;;;39.42;31.95;;;1.30;96.80;;;;;;5044056;28;20433;-77
2022/12/10 09:44:44;;;;;;;36.80;31.80;;;1.40;96.70;;;;;;5038892;28;20448;-67
2022/12/10 09:47:12;;;;;;;38.57;31.03;;;1.70;96.90;;;;;;5039718;28;20883;-77
2022/12/10 09:49:50;;;;;;;36.10;30.45;;;2.10;96.80;;;;;;5035575;28;20544;-77
2022/12/10 09:52:20;;;;;;;36.72;30.55;;;2.50;96.30;;;;;;5039082;28;20451;-77
2022/12/10 09:54:51;;;;;;;38.92;30.65;;;2.80;94.00;;;;;;5041947;28;20503;-77
2022/12/10 09:57:23;;;;;;;36.80;30.63;;;2.90;92.20;;;;;;5042074;28;20445;-77
2022/12/10 09:59:51;;;;;;;39.72;30.98;;;3.10;91.80;;;;;;5039768;28;20439;-76
2022/12/10 10:02:23;;;;;;;36.42;30.45;;;3.20;91.40;;;;;;5044326;28;20543;-76
2022/12/10 10:04:51;;;;;;;33.65;29.50;;;3.30;90.20;;;;;;5042415;28;20522;-76
2022/12/10 10:07:22;;;;;;;40.78;32.15;;;3.10;88.80;;;;;;5046112;28;20460;-79
2022/12/10 10:09:50;;;;;;;39.85;31.90;;;2.80;89.60;;;;;;5041502;28;20912;-77
2022/12/10 10:12:17;;;;;;;39.33;31.88;;;2.50;90.30;;;;;;5040239;28;20909;-78
2022/12/10 10:14:46;;;;;;;43.33;34.60;;;2.20;90.90;;;;;;5040895;28;20444;-79
2022/12/10 10:17:20;;;;;;;38.80;33.55;;;2.00;91.60;;;;;;5042630;28;20437;-76
2022/12/10 10:19:46;;;;;;;41.30;34.30;;;1.80;92.00;;;;;;5041725;28;20522;-78
2022/12/10 10:22:13;;;;;;;39.72;32.65;;;1.70;92.30;;;;;;5040479;28;20433;-76
2022/12/10 10:24:42;;;;;;;40.80;34.05;;;1.60;92.50;;;;;;5042798;28;20448;-75
2022/12/10 10:27:14;;;;;;;41.17;32.75;;;1.50;93.00;;;;;;5037772;28;20437;-77
2022/12/10 10:29:42;;;;;;;40.63;32.40;;;1.50;93.30;;;;;;5041481;28;20429;-77
2022/12/10 10:32:17;;;;;;;41.15;33.30;;;1.50;93.20;;;;;;5040325;28;20428;-74
2022/12/10 10:34:45;;;;;;;36.25;31.15;;;1.50;93.30;;;;;;5041278;28;20919;-76
2022/12/10 10:37:19;;;;;;;38.30;30.60;;;1.50;92.90;;;;;;5037040;28;20429;-76
2022/12/10 10:39:49;;;;;;;37.22;30.98;;;1.60;92.70;;;;;;5038346;28;20455;-76
2022/12/10 10:42:27;;;;;;;37.95;31.98;;;1.70;92.70;;;;;;5031265;28;20436;-76
2022/12/10 10:44:54;;;;;;;37.97;32.70;;;1.80;92.50;;;;;;5041805;28;20918;-73
2022/12/10 10:47:29;;;;;;;37.70;33.55;;;1.90;91.70;;;;;;5038692;28;21407;-79
2022/12/10 10:49:56;;;;;;;41.20;32.63;;;2.00;91.60;;;;;;5037479;28;20917;-77
2022/12/10 10:52:23;;;;;;;36.47;30.40;;;2.10;91.80;;;;;;5037055;28;20456;-76
2022/12/10 10:54:50;;;;;;;39.05;31.65;;;2.10;91.60;;;;;;5040566;28;20461;-77
2022/12/10 10:57:23;;;;;;;43.65;34.78;;;2.20;91.20;;;;;;5044250;28;20444;-77
2022/12/10 10:59:50;;;;;;;42.30;34.95;;;2.20;91.20;;;;;;5044260;28;20546;-77
2022/12/10 11:02:21;;;;;;;40.15;33.72;;;2.20;91.40;;;;;;5049157;28;20440;-75
2022/12/10 11:04:51;;;;;;;40.95;34.15;;;2.10;91.20;;;;;;5049171;28;20490;-75
2022/12/10 11:07:24;;;;;;;40.20;35.00;;;2.00;91.40;;;;;;5052062;28;20532;-75
2022/12/10 11:09:53;;;;;;;42.25;36.55;;;1.90;91.60;;;;;;5053856;28;20498;-76
2022/12/10 11:12:30;;;;;;;39.33;34.47;;;1.90;91.60;;;;;;5055607;28;20464;-76
2022/12/10 11:14:57;;;;;;;38.10;32.67;;;1.90;91.50;;;;;;5047500;28;20432;-76
2022/12/10 11:17:25;;;;;;;41.70;35.42;;;1.80;91.50;;;;;;5045488;28;20440;-76
2022/12/10 11:19:59;;;;;;;43.95;36.65;;;1.70;91.70;;;;;;5038547;28;20433;-78
2022/12/10 11:22:29;;;;;;;39.55;34.50;;;1.80;92.10;;;;;;5042514;28;20421;-76
2022/12/10 11:24:56;;;;;;;43.85;35.92;;;1.70;92.20;;;;;;5044078;28;20434;-76
2022/12/10 11:27:37;;;;;;;41.17;33.85;;;1.70;92.40;;;;;;5033255;28;20500;-77
2022/12/10 11:30:06;;;;;;;42.42;33.90;;;1.70;92.00;;;;;;5041137;28;20425;-75
2022/12/10 11:32:49;;;;;;;39.15;33.30;;;1.60;92.10;;;;;;5044166;28;20413;-76
2022/12/10 11:35:21;;;;;;;40.70;33.80;;;1.60;92.40;;;;;;5041913;28;20433;-77
2022/12/10 11:37:57;;;;;;;42.28;33.75;;;1.60;92.60;;;;;;5034714;28;20444;-77
2022/12/10 11:40:39;;;;;;;40.20;33.42;;;1.70;92.40;;;;;;5039806;28;20530;-76
2022/12/10 11:43:28;;;;;;;39.60;34.15;;;1.70;92.10;;;;;;5036491;28;20446;-76
2022/12/10 11:46:07;;;;;;;36.75;32.30;;;1.60;92.10;;;;;;5040938;28;20444;-76
2022/12/10 11:48:46;;;;;;;37.45;30.27;;;1.50;92.00;;;;;;5041963;28;20935;-77
2022/12/10 11:51:23;;;;;;;37.75;30.60;;;1.40;91.80;;;;;;5042457;28;20444;-76
2022/12/10 11:54:01;;;;;;;35.88;30.08;;;1.30;92.00;;;;;;5038680;28;20460;-77
2022/12/10 11:56:32;;;;;;;36.75;29.02;;;1.20;92.10;;;;;;5047011;28;20425;-64
2022/12/10 11:59:07;;;;;;;37.90;31.13;;;1.20;93.50;;;;;;5037413;28;20961;-76
2022/12/10 12:01:55;;;;;;;35.05;29.20;;;1.30;93.50;;;;;;5042323;28;20471;-75
2022/12/10 12:04:29;;;;;;;32.33;27.77;;;1.30;92.60;;;;;;5040023;28;20425;-76
2022/12/10 12:07:29;;;;;;;33.13;27.42;;;1.40;92.70;;;;;;5042434;28;20443;-74
2022/12/10 12:10:22;;;;;;;31.97;28.17;;;1.70;92.60;;;;;;5040539;28;20429;-76
2022/12/10 12:12:56;;;;;;;31.02;27.63;;;1.80;91.80;;;;;;5051148;28;20779;-72
2022/12/10 12:15:27;;;;;;;32.10;27.15;;;1.90;91.50;;;;;;5062090;28;20447;-76
2022/12/10 12:18:00;;;;;;;32.17;27.95;;;1.90;91.50;;;;;;5062577;28;20500;-73
2022/12/10 12:20:31;;;;;;;31.70;27.35;;;2.00;91.40;;;;;;5057569;28;20781;-74
2022/12/10 12:23:04;;;;;;;29.52;26.00;;;2.00;90.30;;;;;;5057221;28;20435;-73
2022/12/10 12:25:36;;;;;;;30.92;27.20;;;2.10;90.10;;;;;;5052024;28;20429;-74
2022/12/10 12:28:12;;;;;;;29.70;26.10;;;2.10;90.10;;;;;;5040930;28;20435;-74
2022/12/10 12:30:42;;;;;;;30.02;26.17;;;2.20;90.00;;;;;;5043232;28;20456;-74
2022/12/10 12:33:12;;;;;;;32.10;27.63;;;2.20;89.10;;;;;;5038466;28;20464;-73
2022/12/10 12:35:44;;;;;;;31.50;28.10;;;2.20;90.00;;;;;;5040303;28;20429;-79
2022/12/10 12:38:24;;;;;;;31.95;27.50;;;2.20;89.80;;;;;;5044364;28;20433;-74
2022/12/10 12:40:56;;;;;;;33.05;27.98;;;2.30;89.00;;;;;;5046582;28;20972;-72
2022/12/10 12:43:26;;;;;;;35.72;29.73;;;2.20;88.40;;;;;;5049755;28;20421;-73
2022/12/10 12:45:55;;;;;;;33.00;29.40;;;2.10;88.70;;;;;;5043326;28;20436;-73
2022/12/10 12:48:28;;;;;;;31.95;27.05;;;2.10;89.20;;;;;;5044251;28;20488;-74
2022/12/10 12:50:58;;;;;;;30.00;26.52;;;2.10;89.00;;;;;;5048111;28;20433;-74
2022/12/10 12:53:31;;;;;;;30.88;27.27;;;2.00;88.70;;;;;;5042618;28;20433;-74
2022/12/10 12:56:05;;;;;;;32.40;27.63;;;2.00;89.60;;;;;;5042086;28;20440;-74